Time;durP1;ratioP1;P1;durP2;ratioP2;P2;SDS_P1;SDS_P2;PMS_P1;PMS_P2;Temp;Humidity;BMP_temperature;BMP_pressure;BME280_temperature;BME280_humidity;BME280_pressure;Samples;Min_cycle;Max_cycle;Signal;HPM_P1;HPM_P2
2021/07/26 00:01:54;;;;;;;;;;;26.30;94.90;;;;;;5105300;28;20189;-42
2021/07/26 00:04:20;;;;;;;;;;;26.30;94.70;;;;;;5105199;28;19908;-41
2021/07/26 00:06:47;;;;;;;;;;;26.30;94.70;;;;;;5105368;28;19945;-44
2021/07/26 00:09:13;;;;;;;;;;;26.30;94.70;;;;;;5105377;28;19919;-48
2021/07/26 00:11:39;;;;;;;;;;;26.20;94.70;;;;;;5105371;28;20087;-45
2021/07/26 00:14:06;;;;;;;;;;;26.30;94.70;;;;;;5105157;28;19904;-45
2021/07/26 00:16:32;;;;;;;;;;;26.40;94.60;;;;;;5105150;28;19904;-44
2021/07/26 00:18:58;;;;;;;;;;;26.40;94.50;;;;;;5086764;28;19914;-48
2021/07/26 00:21:24;;;;;;;;;;;26.50;94.40;;;;;;5105150;28;19911;-41
2021/07/26 00:23:50;;;;;;;;;;;26.50;94.30;;;;;;5104735;28;19957;-43
2021/07/26 00:26:17;;;;;;;;;;;26.50;94.20;;;;;;5104885;28;19910;-46
2021/07/26 00:28:43;;;;;;;;;;;26.60;94.10;;;;;;5104629;28;19904;-42
2021/07/26 00:31:09;;;;;;;;;;;26.60;94.20;;;;;;5104507;28;20219;-44
2021/07/26 00:36:25;;;;;;;;;;;26.60;94.10;;;;;;5091430;28;19978;-45
2021/07/26 00:38:52;;;;;;;;;;;26.60;94.10;;;;;;5104567;28;19904;-43
2021/07/26 00:41:18;;;;;;;;;;;26.60;94.00;;;;;;5104259;28;19935;-46
2021/07/26 00:43:44;;;;;;;;;;;26.60;94.00;;;;;;5104432;28;19923;-46
2021/07/26 00:46:10;;;;;;;;;;;26.60;93.90;;;;;;5104553;28;19911;-47
2021/07/26 00:48:36;;;;;;;;;;;26.60;93.90;;;;;;5104579;28;20145;-42
2021/07/26 00:51:03;;;;;;;;;;;26.60;93.90;;;;;;5104370;28;20132;-45
2021/07/26 00:53:29;;;;;;;;;;;26.60;93.90;;;;;;5104308;28;19927;-50
2021/07/26 00:55:56;;;;;;;;;;;26.60;93.80;;;;;;5104656;28;19967;-41
2021/07/26 00:58:22;;;;;;;;;;;26.60;93.80;;;;;;5104287;28;19908;-43
2021/07/26 01:00:48;;;;;;;;;;;26.60;93.80;;;;;;5104440;28;19900;-44
2021/07/26 01:03:14;;;;;;;;;;;26.60;93.70;;;;;;5104500;28;19911;-43
2021/07/26 01:05:41;;;;;;;;;;;26.60;93.60;;;;;;5086199;28;19900;-45
2021/07/26 01:08:07;;;;;;;;;;;26.60;93.50;;;;;;5104515;28;19919;-46
2021/07/26 01:10:33;;;;;;;;;;;26.60;93.50;;;;;;5104301;28;19899;-46
2021/07/26 01:12:59;;;;;;;;;;;26.60;93.50;;;;;;5104827;28;19908;-46
2021/07/26 01:15:25;;;;;;;;;;;26.60;93.50;;;;;;5104434;28;19904;-50
2021/07/26 01:18:12;;;;;;;;;;;26.60;93.40;;;;;;5104688;28;19953;-42
2021/07/26 01:20:38;;;;;;;;;;;26.60;93.30;;;;;;5104082;28;19954;-44
2021/07/26 01:23:04;;;;;;;;;;;26.60;93.30;;;;;;5104243;28;19904;-51
2021/07/26 01:25:34;;;;;;;;;;;26.60;93.30;;;;;;5104010;28;19927;-46
2021/07/26 01:28:00;;;;;;;;;;;26.60;93.30;;;;;;5104575;28;19904;-49
2021/07/26 01:30:26;;;;;;;;;;;26.60;93.30;;;;;;5086249;28;19915;-48
2021/07/26 01:32:52;;;;;;;;;;;26.60;93.30;;;;;;5104463;28;20267;-49
2021/07/26 01:35:19;;;;;;;;;;;26.60;93.30;;;;;;5103937;28;19915;-45
2021/07/26 01:37:45;;;;;;;;;;;26.60;93.40;;;;;;5070650;28;19923;-46
2021/07/26 01:40:11;;;;;;;;;;;26.50;93.30;;;;;;5083996;28;19938;-44
2021/07/26 01:42:42;;;;;;;;;;;26.50;93.30;;;;;;5084067;28;19976;-43
2021/07/26 01:45:09;;;;;;;;;;;26.50;93.20;;;;;;5065904;28;19907;-44
2021/07/26 01:47:40;;;;;;;;;;;26.50;93.30;;;;;;5084723;28;20210;-49
2021/07/26 01:50:09;;;;;;;;;;;26.50;93.30;;;;;;5065892;28;20188;-43
2021/07/26 01:52:36;;;;;;;;;;;26.50;93.30;;;;;;5085627;28;19908;-46
2021/07/26 01:55:02;;;;;;;;;;;26.50;93.20;;;;;;5069657;28;19950;-45
2021/07/26 01:57:29;;;;;;;;;;;26.50;93.20;;;;;;5087561;28;20103;-47
2021/07/26 01:59:55;;;;;;;;;;;26.50;93.20;;;;;;5087469;28;19900;-44
2021/07/26 02:02:23;;;;;;;;;;;26.50;93.20;;;;;;5087682;28;19916;-43
2021/07/26 02:04:50;;;;;;;;;;;26.40;93.10;;;;;;5087055;28;19943;-46
2021/07/26 02:07:17;;;;;;;;;;;26.40;93.10;;;;;;5087571;28;20205;-45
2021/07/26 02:09:43;;;;;;;;;;;26.40;93.10;;;;;;5069378;28;20130;-47
2021/07/26 02:12:09;;;;;;;;;;;26.40;93.20;;;;;;5087348;28;19931;-47
2021/07/26 02:14:35;;;;;;;;;;;26.40;93.20;;;;;;5087252;28;20189;-44
2021/07/26 02:17:01;;;;;;;;;;;26.40;93.20;;;;;;5069583;28;19971;-45
2021/07/26 02:19:28;;;;;;;;;;;26.40;93.20;;;;;;5068824;28;19911;-46
2021/07/26 02:21:54;;;;;;;;;;;26.40;93.20;;;;;;5087269;28;19909;-48
2021/07/26 02:24:20;;;;;;;;;;;26.40;93.20;;;;;;5069061;28;19904;-50
2021/07/26 02:26:46;;;;;;;;;;;26.40;93.20;;;;;;5087099;28;20203;-46
2021/07/26 02:29:12;;;;;;;;;;;26.40;93.20;;;;;;5086998;28;19983;-48
2021/07/26 02:31:39;;;;;;;;;;;26.30;93.20;;;;;;5086677;28;19913;-49
2021/07/26 02:34:05;;;;;;;;;;;26.30;93.20;;;;;;5086607;28;19906;-47
2021/07/26 02:36:31;;;;;;;;;;;26.30;93.20;;;;;;5068467;28;20235;-44
2021/07/26 02:38:57;;;;;;;;;;;26.30;93.20;;;;;;5097834;28;19983;-51
2021/07/26 02:41:23;;;;;;;;;;;26.30;93.20;;;;;;5100743;28;19908;-42
2021/07/26 02:43:50;;;;;;;;;;;26.30;93.20;;;;;;5096413;28;20095;-41
2021/07/26 02:46:16;;;;;;;;;;;26.30;93.30;;;;;;5088727;28;20191;-43
2021/07/26 02:48:42;;;;;;;;;;;26.30;93.40;;;;;;5106908;28;19900;-43
2021/07/26 02:51:09;;;;;;;;;;;26.30;93.40;;;;;;5106731;28;19911;-45
2021/07/26 02:53:35;;;;;;;;;;;26.30;93.50;;;;;;5088544;28;19900;-43
2021/07/26 02:56:05;;;;;;;;;;;26.30;93.60;;;;;;5088676;28;19908;-42
2021/07/26 02:58:32;;;;;;;;;;;26.30;93.60;;;;;;5088208;28;20149;-46
2021/07/26 03:00:58;;;;;;;;;;;26.20;93.70;;;;;;5103608;28;20092;-44
2021/07/26 03:03:24;;;;;;;;;;;26.20;93.70;;;;;;5092439;28;19904;-44
2021/07/26 03:05:50;;;;;;;;;;;26.20;93.70;;;;;;5087898;28;19900;-44
2021/07/26 03:08:16;;;;;;;;;;;26.20;93.80;;;;;;5106807;28;19900;-43
2021/07/26 03:10:43;;;;;;;;;;;26.20;93.80;;;;;;5106279;28;19906;-42
2021/07/26 03:13:09;;;;;;;;;;;26.20;93.80;;;;;;5106004;28;19923;-50
2021/07/26 03:15:38;;;;;;;;;;;26.20;93.90;;;;;;5106216;28;20192;-51
2021/07/26 03:18:04;;;;;;;;;;;26.10;93.90;;;;;;5105920;28;19938;-45
2021/07/26 03:20:31;;;;;;;;;;;26.20;94.00;;;;;;5105953;28;20199;-44
2021/07/26 03:22:57;;;;;;;;;;;26.10;94.00;;;;;;5106591;28;19939;-43
2021/07/26 03:25:23;;;;;;;;;;;26.10;94.00;;;;;;5105837;28;19907;-46
2021/07/26 03:27:53;;;;;;;;;;;26.10;94.00;;;;;;5106625;28;19931;-53
2021/07/26 03:30:20;;;;;;;;;;;26.10;93.90;;;;;;5107003;28;20206;-54
2021/07/26 03:32:46;;;;;;;;;;;26.10;93.90;;;;;;5107137;28;19930;-47
2021/07/26 03:35:14;;;;;;;;;;;26.10;94.00;;;;;;5107126;28;20092;-55
2021/07/26 03:37:40;;;;;;;;;;;26.10;94.00;;;;;;5105919;28;19916;-44
2021/07/26 03:40:06;;;;;;;;;;;26.00;94.00;;;;;;5088179;28;19904;-46
2021/07/26 03:42:34;;;;;;;;;;;26.00;94.00;;;;;;5087688;28;20096;-46
2021/07/26 03:45:00;;;;;;;;;;;26.00;94.00;;;;;;5105639;28;19900;-45
2021/07/26 03:47:27;;;;;;;;;;;26.00;94.00;;;;;;5105974;28;19908;-43
2021/07/26 03:49:53;;;;;;;;;;;26.00;94.00;;;;;;5087709;28;19906;-43
2021/07/26 03:52:19;;;;;;;;;;;26.00;94.00;;;;;;5107247;28;19916;-44
2021/07/26 03:54:46;;;;;;;;;;;26.00;94.00;;;;;;5105863;28;19952;-42
2021/07/26 03:57:12;;;;;;;;;;;26.00;93.90;;;;;;5105850;28;19908;-41
2021/07/26 03:59:38;;;;;;;;;;;26.00;94.00;;;;;;5105205;28;20078;-43
2021/07/26 04:02:05;;;;;;;;;;;26.00;94.00;;;;;;5087413;28;19949;-47
2021/07/26 04:04:31;;;;;;;;;;;26.00;94.00;;;;;;5105222;28;19900;-42
2021/07/26 04:07:03;;;;;;;;;;;26.00;94.00;;;;;;5105141;28;19914;-45
2021/07/26 04:09:36;;;;;;;;;;;25.90;94.00;;;;;;5105474;28;20112;-48
2021/07/26 04:12:06;;;;;;;;;;;26.00;94.10;;;;;;5105628;28;20017;-46
2021/07/26 04:14:36;;;;;;;;;;;25.90;94.10;;;;;;5087296;28;19907;-43
2021/07/26 04:17:02;;;;;;;;;;;25.90;94.40;;;;;;5104805;28;20212;-41
2021/07/26 04:19:30;;;;;;;;;;;25.90;94.10;;;;;;5104858;28;19907;-43
2021/07/26 04:22:01;;;;;;;;;;;25.90;94.10;;;;;;5105294;28;19915;-45
2021/07/26 04:24:28;;;;;;;;;;;25.90;94.20;;;;;;5105089;28;19908;-43
2021/07/26 04:26:54;;;;;;;;;;;25.90;94.10;;;;;;5105179;28;19915;-48
2021/07/26 04:29:20;;;;;;;;;;;25.90;94.10;;;;;;5104862;28;19963;-41
2021/07/26 04:31:47;;;;;;;;;;;25.90;94.20;;;;;;5105123;28;20022;-45
2021/07/26 04:34:17;;;;;;;;;;;25.90;94.20;;;;;;5104861;28;19971;-43
2021/07/26 04:36:43;;;;;;;;;;;25.90;94.20;;;;;;5105104;28;20218;-43
2021/07/26 04:39:09;;;;;;;;;;;25.90;94.30;;;;;;5104689;28;19904;-43
2021/07/26 04:41:35;;;;;;;;;;;25.90;94.30;;;;;;5096815;28;19979;-41
2021/07/26 04:44:02;;;;;;;;;;;25.80;94.30;;;;;;5096230;28;19922;-45
2021/07/26 04:46:28;;;;;;;;;;;25.80;94.30;;;;;;5104783;28;19908;-47
2021/07/26 04:48:54;;;;;;;;;;;25.80;94.30;;;;;;5104449;28;19906;-43
2021/07/26 04:51:20;;;;;;;;;;;25.90;94.40;;;;;;5104704;28;19908;-42
2021/07/26 04:53:46;;;;;;;;;;;25.80;94.40;;;;;;5104491;28;20200;-48
2021/07/26 04:56:13;;;;;;;;;;;25.80;94.40;;;;;;5104628;28;19915;-51
2021/07/26 04:58:39;;;;;;;;;;;25.80;94.40;;;;;;5104456;28;19962;-45
2021/07/26 05:01:07;;;;;;;;;;;25.80;94.50;;;;;;5104498;28;19908;-48
2021/07/26 05:03:33;;;;;;;;;;;25.80;94.50;;;;;;5104476;28;19900;-47
2021/07/26 05:05:59;;;;;;;;;;;25.80;94.60;;;;;;5104369;28;19975;-48
2021/07/26 05:08:25;;;;;;;;;;;25.80;94.60;;;;;;5104365;28;19907;-44
2021/07/26 05:10:51;;;;;;;;;;;25.80;94.60;;;;;;5104351;28;19907;-45
2021/07/26 05:13:17;;;;;;;;;;;25.80;94.70;;;;;;5104186;28;19908;-46
2021/07/26 05:15:43;;;;;;;;;;;25.80;94.70;;;;;;5103382;28;19938;-47
2021/07/26 05:18:10;;;;;;;;;;;25.80;94.70;;;;;;5088450;28;19904;-44
2021/07/26 05:20:36;;;;;;;;;;;25.80;94.70;;;;;;5104192;28;19927;-46
2021/07/26 05:23:07;;;;;;;;;;;25.80;94.70;;;;;;5104781;28;19908;-46
2021/07/26 05:25:33;;;;;;;;;;;25.80;94.70;;;;;;5104219;28;20208;-42
2021/07/26 05:27:59;;;;;;;;;;;25.80;94.80;;;;;;5106865;28;19914;-43
2021/07/26 05:30:25;;;;;;;;;;;25.80;94.80;;;;;;5108270;28;19900;-42
2021/07/26 05:32:53;;;;;;;;;;;25.80;94.80;;;;;;5108727;28;19908;-45
2021/07/26 05:35:20;;;;;;;;;;;25.80;94.80;;;;;;5108033;28;19967;-45
2021/07/26 05:37:46;;;;;;;;;;;25.80;94.80;;;;;;5107933;28;19986;-43
2021/07/26 05:40:12;;;;;;;;;;;25.80;94.80;;;;;;5108355;28;19900;-54
2021/07/26 05:42:39;;;;;;;;;;;25.80;94.80;;;;;;5108075;28;19908;-45
2021/07/26 05:45:05;;;;;;;;;;;25.80;94.90;;;;;;5107475;28;19908;-42
2021/07/26 05:47:31;;;;;;;;;;;25.80;94.80;;;;;;5108194;28;19928;-46
2021/07/26 05:49:57;;;;;;;;;;;25.80;94.70;;;;;;5107357;28;20134;-47
2021/07/26 05:52:24;;;;;;;;;;;25.80;94.70;;;;;;5108191;28;19907;-42
2021/07/26 05:54:50;;;;;;;;;;;25.80;94.60;;;;;;5107676;28;19904;-43
2021/07/26 05:57:18;;;;;;;;;;;25.80;94.70;;;;;;5107845;28;19904;-42
2021/07/26 05:59:44;;;;;;;;;;;25.80;94.70;;;;;;5107607;28;19912;-43
2021/07/26 06:02:10;;;;;;;;;;;25.80;94.70;;;;;;5107365;28;19971;-44
2021/07/26 06:04:36;;;;;;;;;;;25.80;94.70;;;;;;5107146;28;19903;-40
2021/07/26 06:07:03;;;;;;;;;;;25.80;94.70;;;;;;5106642;28;19960;-43
2021/07/26 06:09:29;;;;;;;;;;;25.80;94.70;;;;;;5107606;28;19945;-47
2021/07/26 06:11:56;;;;;;;;;;;25.80;94.70;;;;;;5107640;28;19904;-43
2021/07/26 06:14:22;;;;;;;;;;;25.80;94.70;;;;;;5107122;28;19912;-49
2021/07/26 06:16:49;;;;;;;;;;;25.80;94.70;;;;;;5106594;28;20154;-50
2021/07/26 06:19:16;;;;;;;;;;;25.80;94.60;;;;;;5107299;28;19990;-40
2021/07/26 06:21:46;;;;;;;;;;;25.80;94.60;;;;;;5107352;28;19911;-48
2021/07/26 06:24:13;;;;;;;;;;;25.80;94.70;;;;;;5107347;28;19990;-44
2021/07/26 06:26:40;;;;;;;;;;;25.80;94.70;;;;;;5106998;28;19911;-44
2021/07/26 06:29:06;;;;;;;;;;;25.80;94.60;;;;;;5107394;28;20104;-47
2021/07/26 06:31:33;;;;;;;;;;;25.80;94.60;;;;;;5107259;28;19904;-42
2021/07/26 06:33:59;;;;;;;;;;;25.80;94.60;;;;;;5107142;28;19903;-43
2021/07/26 06:36:26;;;;;;;;;;;25.80;94.50;;;;;;5106750;28;19934;-45
2021/07/26 06:38:52;;;;;;;;;;;25.70;94.50;;;;;;5106033;28;20237;-42
2021/07/26 06:41:18;;;;;;;;;;;25.70;94.50;;;;;;5107142;28;19908;-41
2021/07/26 06:43:44;;;;;;;;;;;25.70;94.60;;;;;;5106743;28;20147;-46
2021/07/26 06:46:10;;;;;;;;;;;25.70;94.60;;;;;;5106973;28;19953;-42
2021/07/26 06:48:36;;;;;;;;;;;25.70;94.50;;;;;;5106799;28;19906;-44
2021/07/26 06:51:03;;;;;;;;;;;25.80;94.50;;;;;;5106618;28;19912;-42
2021/07/26 06:53:29;;;;;;;;;;;25.70;94.50;;;;;;5106587;28;20100;-45
2021/07/26 06:55:55;;;;;;;;;;;25.70;94.50;;;;;;5106768;28;19900;-45
2021/07/26 06:58:21;;;;;;;;;;;25.70;94.70;;;;;;5106418;28;19904;-44
2021/07/26 07:00:48;;;;;;;;;;;25.70;94.50;;;;;;5106692;28;19900;-42
2021/07/26 07:03:14;;;;;;;;;;;25.70;94.50;;;;;;5106440;28;20097;-41
2021/07/26 07:05:40;;;;;;;;;;;25.70;94.50;;;;;;5106189;28;19907;-42
2021/07/26 07:08:06;;;;;;;;;;;25.70;94.50;;;;;;5106348;28;19950;-43
2021/07/26 07:10:32;;;;;;;;;;;25.70;94.50;;;;;;5106252;28;19900;-52
2021/07/26 07:12:58;;;;;;;;;;;25.70;94.40;;;;;;5106826;28;20010;-44
2021/07/26 07:15:26;;;;;;;;;;;25.70;94.50;;;;;;5106075;28;19939;-43
2021/07/26 07:17:53;;;;;;;;;;;25.70;94.50;;;;;;5106531;28;19954;-41
2021/07/26 07:20:19;;;;;;;;;;;25.70;94.50;;;;;;5106306;28;19900;-46
2021/07/26 07:22:46;;;;;;;;;;;25.70;94.50;;;;;;5106352;28;19907;-45
2021/07/26 07:25:12;;;;;;;;;;;25.70;94.50;;;;;;5087864;28;20145;-48
2021/07/26 07:27:38;;;;;;;;;;;25.70;94.50;;;;;;5106655;28;20099;-44
2021/07/26 07:30:05;;;;;;;;;;;25.70;94.50;;;;;;5105833;28;19900;-47
2021/07/26 07:32:32;;;;;;;;;;;25.70;94.60;;;;;;5106181;28;19907;-49
2021/07/26 07:34:58;;;;;;;;;;;25.70;94.60;;;;;;5105817;28;19900;-42
2021/07/26 07:37:25;;;;;;;;;;;25.70;94.60;;;;;;5105624;28;19968;-50
2021/07/26 07:39:51;;;;;;;;;;;25.60;94.60;;;;;;5105641;28;19931;-45
2021/07/26 07:42:17;;;;;;;;;;;25.70;94.60;;;;;;5106043;28;19931;-48
2021/07/26 07:44:43;;;;;;;;;;;25.60;94.60;;;;;;5105484;28;20236;-48
2021/07/26 07:47:13;;;;;;;;;;;25.60;94.60;;;;;;5105587;28;19908;-45
2021/07/26 07:49:39;;;;;;;;;;;25.60;94.60;;;;;;5105310;28;19990;-42
2021/07/26 07:52:05;;;;;;;;;;;25.60;94.70;;;;;;5105679;28;19912;-42
2021/07/26 07:54:31;;;;;;;;;;;25.60;94.70;;;;;;5105407;28;19900;-43
2021/07/26 07:56:58;;;;;;;;;;;25.60;94.70;;;;;;5105798;28;19983;-45
2021/07/26 07:59:25;;;;;;;;;;;25.60;94.80;;;;;;5105525;28;20073;-44
2021/07/26 08:01:51;;;;;;;;;;;25.60;94.80;;;;;;5105523;28;20180;-41
2021/07/26 08:04:17;;;;;;;;;;;25.60;94.80;;;;;;5105306;28;19972;-42
2021/07/26 08:06:44;;;;;;;;;;;25.60;94.80;;;;;;5105069;28;19908;-47
2021/07/26 08:09:10;;;;;;;;;;;25.60;94.80;;;;;;5105205;28;19907;-47
2021/07/26 08:11:37;;;;;;;;;;;25.70;94.90;;;;;;5104968;28;19907;-48
2021/07/26 08:14:03;;;;;;;;;;;25.70;94.90;;;;;;5105193;28;19899;-48
2021/07/26 08:16:31;;;;;;;;;;;25.60;94.80;;;;;;5105223;28;19908;-42
2021/07/26 08:18:57;;;;;;;;;;;25.60;94.90;;;;;;5104852;28;19935;-48
2021/07/26 08:21:24;;;;;;;;;;;25.60;94.90;;;;;;5105096;28;19908;-47
2021/07/26 08:23:50;;;;;;;;;;;25.60;94.90;;;;;;5104803;28;20207;-42
2021/07/26 08:26:16;;;;;;;;;;;25.60;94.90;;;;;;5104955;28;19954;-45
2021/07/26 08:28:42;;;;;;;;;;;25.60;94.80;;;;;;5104968;28;19941;-45
2021/07/26 08:31:08;;;;;;;;;;;25.60;94.90;;;;;;5104787;28;20172;-50
2021/07/26 08:33:34;;;;;;;;;;;25.60;94.90;;;;;;5104851;28;19915;-45
2021/07/26 08:36:00;;;;;;;;;;;25.60;94.90;;;;;;5104589;28;19908;-44
2021/07/26 08:38:27;;;;;;;;;;;25.60;95.00;;;;;;5104464;28;19907;-43
2021/07/26 08:40:53;;;;;;;;;;;25.60;95.00;;;;;;5104931;28;19935;-46
2021/07/26 08:43:21;;;;;;;;;;;25.60;95.00;;;;;;5104780;28;19904;-44
2021/07/26 08:45:47;;;;;;;;;;;25.60;95.00;;;;;;5103107;28;19907;-48
2021/07/26 08:48:14;;;;;;;;;;;25.60;95.00;;;;;;5089391;28;19900;-42
2021/07/26 08:50:42;;;;;;;;;;;25.60;95.00;;;;;;5104539;28;19907;-44
2021/07/26 08:53:08;;;;;;;;;;;25.60;95.00;;;;;;5104480;28;19927;-47
2021/07/26 08:55:35;;;;;;;;;;;25.60;95.10;;;;;;5104347;28;19899;-43
2021/07/26 08:58:02;;;;;;;;;;;25.60;95.10;;;;;;5104876;28;20100;-42
2021/07/26 09:00:28;;;;;;;;;;;25.60;95.10;;;;;;5104364;28;19906;-43
2021/07/26 09:02:54;;;;;;;;;;;25.60;95.10;;;;;;5104419;28;20180;-45
2021/07/26 09:05:21;;;;;;;;;;;25.60;95.10;;;;;;5104382;28;19973;-52
2021/07/26 09:07:48;;;;;;;;;;;25.60;95.30;;;;;;5104261;28;19908;-48
2021/07/26 09:10:23;;;;;;;;;;;25.60;95.30;;;;;;5104357;28;19928;-48
2021/07/26 09:12:50;;;;;;;;;;;25.60;95.30;;;;;;5104765;28;19908;-47
2021/07/26 09:15:17;;;;;;;;;;;25.60;95.30;;;;;;5104010;28;19930;-46
2021/07/26 09:17:43;;;;;;;;;;;25.60;95.40;;;;;;5104632;28;20147;-42
2021/07/26 09:20:10;;;;;;;;;;;25.50;95.50;;;;;;5104083;28;19931;-46
2021/07/26 09:22:37;;;;;;;;;;;25.50;95.50;;;;;;5104398;28;19955;-48
2021/07/26 09:25:11;;;;;;;;;;;25.50;95.50;;;;;;5104409;28;19900;-47
2021/07/26 09:27:37;;;;;;;;;;;25.50;95.50;;;;;;5104622;28;19908;-45
2021/07/26 09:30:16;;;;;;;;;;;25.50;95.60;;;;;;5104046;28;19900;-47
2021/07/26 09:32:42;;;;;;;;;;;25.50;95.60;;;;;;5104563;28;19908;-51
2021/07/26 09:35:09;;;;;;;;;;;25.50;95.60;;;;;;5103929;28;19942;-43
2021/07/26 09:37:40;;;;;;;;;;;25.50;95.60;;;;;;5103953;28;20104;-45
2021/07/26 09:40:21;;;;;;;;;;;25.50;95.70;;;;;;5104107;28;20082;-46
2021/07/26 09:42:48;;;;;;;;;;;25.50;95.60;;;;;;5104465;28;19916;-46
2021/07/26 09:45:24;;;;;;;;;;;25.50;95.70;;;;;;5104240;28;19953;-52
2021/07/26 09:48:06;;;;;;;;;;;25.50;95.80;;;;;;5104218;28;19911;-46
2021/07/26 09:50:36;;;;;;;;;;;25.50;95.70;;;;;;5103884;28;19900;-46
2021/07/26 09:53:15;;;;;;;;;;;25.50;95.70;;;;;;5104021;28;20189;-47
2021/07/26 09:55:42;;;;;;;;;;;25.40;95.60;;;;;;5103753;28;19968;-47
2021/07/26 09:58:09;;;;;;;;;;;25.40;95.70;;;;;;5103731;28;19911;-49
2021/07/26 10:00:36;;;;;;;;;;;25.40;95.70;;;;;;5103728;28;19904;-46
2021/07/26 10:03:04;;;;;;;;;;;25.40;95.80;;;;;;5095781;28;20272;-47
2021/07/26 10:05:31;;;;;;;;;;;25.40;95.80;;;;;;5103912;28;19900;-43
2021/07/26 10:08:00;;;;;;;;;;;25.40;95.80;;;;;;5104162;28;19919;-43
2021/07/26 10:10:27;;;;;;;;;;;25.40;95.80;;;;;;5103849;28;19900;-50
2021/07/26 10:12:54;;;;;;;;;;;25.40;95.70;;;;;;5104323;28;19953;-47
2021/07/26 10:15:20;;;;;;;;;;;25.40;95.80;;;;;;5106098;28;19926;-43
2021/07/26 10:17:47;;;;;;;;;;;25.40;95.80;;;;;;5107873;28;19908;-44
2021/07/26 10:20:19;;;;;;;;;;;25.40;95.70;;;;;;5107556;28;19907;-44
2021/07/26 10:22:49;;;;;;;;;;;25.50;95.60;;;;;;5107469;28;20188;-46
2021/07/26 10:25:18;;;;;;;;;;;25.40;95.60;;;;;;5107343;28;19946;-49
2021/07/26 10:27:45;;;;;;;;;;;25.40;95.70;;;;;;5107635;28;19908;-54
2021/07/26 10:30:29;;;;;;;;;;;25.40;95.80;;;;;;5107746;28;20247;-48
2021/07/26 10:32:58;;;;;;;;;;;25.30;95.80;;;;;;5107714;28;19915;-53
2021/07/26 10:35:32;;;;;;;;;;;25.30;95.90;;;;;;5107098;28;19900;-48
2021/07/26 10:37:59;;;;;;;;;;;25.30;96.00;;;;;;5106709;28;19916;-48
2021/07/26 10:40:28;;;;;;;;;;;25.30;96.00;;;;;;5106998;28;20223;-42
2021/07/26 10:42:58;;;;;;;;;;;25.30;95.80;;;;;;5107806;28;19907;-42
2021/07/26 10:45:36;;;;;;;;;;;25.30;95.80;;;;;;5107390;28;19900;-46
2021/07/26 10:48:21;;;;;;;;;;;25.30;95.90;;;;;;5107586;28;20070;-43
2021/07/26 10:50:51;;;;;;;;;;;25.30;96.00;;;;;;5105244;28;19900;-49
2021/07/26 10:53:33;;;;;;;;;;;25.30;96.00;;;;;;5092173;28;20184;-44
2021/07/26 10:56:06;;;;;;;;;;;25.30;96.00;;;;;;5106758;28;19915;-43
2021/07/26 10:58:38;;;;;;;;;;;25.30;96.10;;;;;;5106405;28;19911;-44
2021/07/26 11:01:17;;;;;;;;;;;25.30;96.00;;;;;;5106680;28;19939;-48
2021/07/26 11:03:43;;;;;;;;;;;25.30;96.00;;;;;;5106311;28;19900;-49
2021/07/26 11:06:09;;;;;;;;;;;25.20;96.00;;;;;;5106327;28;19960;-44
2021/07/26 11:08:35;;;;;;;;;;;25.20;96.00;;;;;;5106398;28;20127;-46
2021/07/26 11:11:01;;;;;;;;;;;25.20;96.00;;;;;;5106201;28;19908;-44
2021/07/26 11:13:46;;;;;;;;;;;25.20;96.10;;;;;;5088203;28;19907;-44
2021/07/26 11:16:12;;;;;;;;;;;25.20;96.10;;;;;;5106194;28;19950;-41
2021/07/26 11:18:40;;;;;;;;;;;25.20;96.10;;;;;;5105993;28;19967;-46
2021/07/26 11:21:07;;;;;;;;;;;25.20;96.00;;;;;;5105979;28;19907;-45
2021/07/26 11:23:47;;;;;;;;;;;25.20;96.00;;;;;;5105878;28;19908;-46
2021/07/26 11:26:15;;;;;;;;;;;25.20;96.30;;;;;;5105423;28;19911;-47
2021/07/26 11:28:41;;;;;;;;;;;25.20;96.00;;;;;;5105934;28;20185;-56
2021/07/26 11:31:11;;;;;;;;;;;25.20;96.10;;;;;;5105839;28;20065;-50
2021/07/26 11:33:37;;;;;;;;;;;25.20;96.10;;;;;;5105796;28;19904;-43
2021/07/26 11:36:09;;;;;;;;;;;25.20;96.10;;;;;;5105773;28;19904;-47
2021/07/26 11:38:54;;;;;;;;;;;25.20;96.20;;;;;;5105637;28;20183;-49
2021/07/26 11:41:22;;;;;;;;;;;25.20;96.20;;;;;;5105885;28;19915;-42
2021/07/26 11:43:48;;;;;;;;;;;25.20;96.20;;;;;;5106108;28;20073;-46
2021/07/26 11:46:17;;;;;;;;;;;25.20;96.20;;;;;;5105867;28;20203;-44
2021/07/26 11:48:43;;;;;;;;;;;25.20;96.30;;;;;;5105581;28;19904;-43
2021/07/26 11:51:24;;;;;;;;;;;25.20;96.30;;;;;;5105342;28;19904;-46
2021/07/26 11:53:58;;;;;;;;;;;25.20;96.30;;;;;;5105447;28;19904;-46
2021/07/26 11:56:24;;;;;;;;;;;25.20;96.30;;;;;;5105347;28;19980;-48
2021/07/26 11:58:50;;;;;;;;;;;25.20;96.40;;;;;;5105318;28;19908;-47
2021/07/26 12:01:17;;;;;;;;;;;25.20;96.40;;;;;;5105471;28;19904;-43
2021/07/26 12:03:43;;;;;;;;;;;25.20;96.40;;;;;;5105273;28;19904;-49
2021/07/26 12:06:10;;;;;;;;;;;25.20;96.40;;;;;;5105221;28;19904;-43
2021/07/26 12:08:36;;;;;;;;;;;25.20;96.40;;;;;;5088162;28;19911;-41
2021/07/26 12:11:16;;;;;;;;;;;25.20;96.40;;;;;;5105541;28;19953;-52
2021/07/26 12:13:42;;;;;;;;;;;25.20;96.40;;;;;;5105332;28;19908;-43
2021/07/26 12:16:09;;;;;;;;;;;25.20;96.30;;;;;;5100783;28;20215;-43
2021/07/26 12:18:36;;;;;;;;;;;25.30;96.40;;;;;;5092573;28;19955;-47
2021/07/26 12:21:02;;;;;;;;;;;25.30;96.40;;;;;;5104890;28;19934;-50
2021/07/26 12:23:29;;;;;;;;;;;25.30;96.40;;;;;;5104824;28;19904;-43
2021/07/26 12:25:56;;;;;;;;;;;25.30;96.40;;;;;;5104809;28;19908;-45
2021/07/26 12:28:58;;;;;;;;;;;25.20;96.40;;;;;;5104715;28;19970;-42
2021/07/26 12:31:37;;;;;;;;;;;25.30;96.40;;;;;;5051931;28;19904;-45
2021/07/26 12:34:09;;;;;;;;;;;25.20;96.40;;;;;;5104509;28;19903;-47
2021/07/26 12:36:38;;;;;;;;;;;25.30;96.40;;;;;;5104098;28;20022;-47
2021/07/26 12:39:07;;;;;;;;;;;25.30;96.50;;;;;;5105550;28;19904;-46
2021/07/26 12:41:34;;;;;;;;;;;25.30;96.50;;;;;;5104944;28;20149;-45
2021/07/26 12:44:10;;;;;;;;;;;25.30;96.60;;;;;;5104836;28;19927;-43
2021/07/26 12:46:37;;;;;;;;;;;25.20;96.50;;;;;;5105025;28;20204;-48
2021/07/26 12:49:03;;;;;;;;;;;25.20;96.50;;;;;;5105065;28;20127;-46
2021/07/26 12:51:29;;;;;;;;;;;25.20;96.50;;;;;;5104968;28;19915;-42
2021/07/26 12:53:56;;;;;;;;;;;25.20;96.50;;;;;;5105520;28;19960;-43
2021/07/26 12:56:22;;;;;;;;;;;25.20;96.40;;;;;;5105073;28;19908;-46
2021/07/26 12:58:48;;;;;;;;;;;25.20;96.40;;;;;;5086371;28;19904;-48
2021/07/26 13:01:14;;;;;;;;;;;25.20;96.40;;;;;;5104658;28;19914;-48
2021/07/26 13:03:41;;;;;;;;;;;25.20;96.40;;;;;;5086692;28;19903;-44
2021/07/26 13:06:07;;;;;;;;;;;25.20;96.40;;;;;;5104119;28;19908;-44
2021/07/26 13:08:33;;;;;;;;;;;25.20;96.40;;;;;;5087964;28;19906;-42
2021/07/26 13:10:59;;;;;;;;;;;25.30;96.40;;;;;;5104347;28;19908;-43
2021/07/26 13:13:25;;;;;;;;;;;25.20;96.40;;;;;;5104705;28;19907;-48
2021/07/26 13:15:53;;;;;;;;;;;25.20;96.40;;;;;;5104419;28;19907;-43
2021/07/26 13:18:19;;;;;;;;;;;25.20;96.40;;;;;;5104126;28;19983;-45
2021/07/26 13:20:46;;;;;;;;;;;25.20;96.30;;;;;;5104294;28;19900;-50
2021/07/26 13:23:12;;;;;;;;;;;25.30;96.40;;;;;;5104396;28;20096;-48
2021/07/26 13:25:41;;;;;;;;;;;25.20;96.40;;;;;;5103853;28;19904;-55
2021/07/26 13:28:07;;;;;;;;;;;25.20;96.40;;;;;;5088439;28;19900;-47
2021/07/26 13:30:34;;;;;;;;;;;25.20;96.40;;;;;;5104440;28;19900;-43
2021/07/26 13:33:00;;;;;;;;;;;25.20;96.40;;;;;;5104740;28;19979;-42
2021/07/26 13:35:30;;;;;;;;;;;25.20;96.40;;;;;;5104458;28;20097;-48
2021/07/26 13:37:56;;;;;;;;;;;25.20;96.40;;;;;;5104227;28;19916;-45
2021/07/26 13:40:23;;;;;;;;;;;25.20;96.40;;;;;;5104486;28;19900;-46
2021/07/26 13:42:52;;;;;;;;;;;25.20;96.50;;;;;;5104570;28;19970;-41
2021/07/26 13:45:18;;;;;;;;;;;25.20;96.50;;;;;;5104190;28;19938;-42
2021/07/26 13:47:44;;;;;;;;;;;25.20;96.50;;;;;;5104692;28;19943;-43
2021/07/26 13:50:11;;;;;;;;;;;25.20;96.50;;;;;;5108205;28;19935;-44
2021/07/26 13:52:38;;;;;;;;;;;25.20;96.50;;;;;;5107953;28;19908;-46
2021/07/26 13:55:05;;;;;;;;;;;25.20;96.60;;;;;;5089644;28;19900;-44
2021/07/26 13:57:32;;;;;;;;;;;25.20;96.60;;;;;;5108460;28;19908;-41
2021/07/26 13:59:58;;;;;;;;;;;25.20;96.70;;;;;;5107695;28;19977;-49
2021/07/26 14:02:24;;;;;;;;;;;25.20;96.60;;;;;;5108191;28;20130;-43
2021/07/26 14:04:51;;;;;;;;;;;25.20;96.60;;;;;;5107441;28;19907;-52
2021/07/26 14:07:17;;;;;;;;;;;25.20;96.90;;;;;;5108054;28;19907;-42
2021/07/26 14:09:44;;;;;;;;;;;25.20;96.70;;;;;;5107432;28;19928;-41
2021/07/26 14:12:11;;;;;;;;;;;25.20;96.70;;;;;;5107644;28;19915;-49
2021/07/26 14:14:37;;;;;;;;;;;25.20;96.70;;;;;;5107583;28;20105;-45
2021/07/26 14:17:04;;;;;;;;;;;25.30;96.80;;;;;;5107615;28;20203;-44
2021/07/26 14:19:30;;;;;;;;;;;25.30;96.80;;;;;;5107176;28;19910;-42
2021/07/26 14:21:58;;;;;;;;;;;25.30;96.80;;;;;;5107040;28;19960;-41